Time;durP1;ratioP1;P1;durP2;ratioP2;P2;SDS_P1;SDS_P2;PMS_P1;PMS_P2;Temp;Humidity;BMP_temperature;BMP_pressure;BME280_temperature;BME280_humidity;BME280_pressure;Samples;Min_cycle;Max_cycle;Signal;HPM_P1;HPM_P2
2021/10/04 00:00:15;;;;;;;50.37;46.77;;;;;;;11.24;100.00;100823.55;1941231;74;32981;-77
2021/10/04 00:05:40;;;;;;;49.53;45.83;;;;;;;11.66;100.00;100825.12;1940965;74;32985;-72
2021/10/04 00:11:07;;;;;;;48.33;44.77;;;;;;;11.67;100.00;100828.73;1941195;74;33032;-76
2021/10/04 00:16:32;;;;;;;48.07;44.30;;;;;;;11.75;100.00;100835.09;1941444;74;33527;-77
2021/10/04 00:21:56;;;;;;;49.10;45.40;;;;;;;11.80;100.00;100842.00;1941404;74;32980;-77
2021/10/04 00:27:20;;;;;;;48.83;45.00;;;;;;;11.72;100.00;100833.70;1940920;74;33009;-72
2021/10/04 00:32:47;;;;;;;47.83;44.30;;;;;;;11.86;100.00;100833.29;1941618;74;33620;-76
2021/10/04 00:38:13;;;;;;;51.57;47.67;;;;;;;11.53;100.00;100842.48;1941102;74;33418;-78
2021/10/04 00:43:37;;;;;;;50.00;46.20;;;;;;;11.32;100.00;100847.95;1941655;74;33530;-76
2021/10/04 00:49:02;;;;;;;47.90;44.10;;;;;;;11.21;100.00;100847.78;1941076;74;33468;-78
2021/10/04 00:54:27;;;;;;;49.20;45.40;;;;;;;11.35;100.00;100845.97;1940914;74;33086;-72
2021/10/04 00:59:51;;;;;;;49.93;46.23;;;;;;;11.03;100.00;100854.02;1940945;74;33031;-72
2021/10/04 01:05:16;;;;;;;48.17;44.53;;;;;;;10.93;100.00;100867.41;1941268;74;32977;-76
2021/10/04 01:10:41;;;;;;;48.60;45.03;;;;;;;10.90;100.00;100866.59;1941175;74;33506;-71
2021/10/04 01:16:06;;;;;;;50.50;46.37;;;;;;;11.12;100.00;100872.58;1940918;74;33054;-79
2021/10/04 01:21:31;;;;;;;50.13;46.27;;;;;;;11.08;100.00;100866.49;1940895;74;33101;-78
2021/10/04 01:26:54;;;;;;;50.43;46.60;;;;;;;10.96;100.00;100867.66;1941138;74;33477;-71
2021/10/04 01:32:18;;;;;;;50.17;46.40;;;;;;;11.02;100.00;100870.41;1941142;74;32985;-78
2021/10/04 01:37:50;;;;;;;50.97;46.63;;;;;;;11.21;100.00;100863.87;1941183;74;33602;-71
2021/10/04 01:43:15;;;;;;;50.23;46.13;;;;;;;11.40;100.00;100858.45;1940884;74;33059;-78
2021/10/04 01:48:39;;;;;;;49.60;45.80;;;;;;;11.25;100.00;100864.15;1941056;74;33052;-78
2021/10/04 01:54:04;;;;;;;49.40;45.80;;;;;;;10.72;100.00;100864.47;1940794;74;32994;-78
2021/10/04 01:59:28;;;;;;;51.73;47.93;;;;;;;10.83;100.00;100864.13;1940934;74;32987;-71
2021/10/04 02:04:52;;;;;;;51.73;47.50;;;;;;;10.56;100.00;100860.12;1941292;74;33065;-77
2021/10/04 02:10:20;;;;;;;51.27;47.17;;;;;;;10.47;100.00;100859.88;1941004;74;33500;-79
2021/10/04 02:15:45;;;;;;;49.20;45.20;;;;;;;10.63;100.00;100860.63;1941258;74;33631;-77
2021/10/04 02:21:10;;;;;;;47.37;43.77;;;;;;;10.78;100.00;100846.67;1941093;74;33090;-77
2021/10/04 02:26:34;;;;;;;46.53;42.97;;;;;;;10.78;100.00;100850.84;1941069;74;33482;-72
2021/10/04 02:31:58;;;;;;;46.43;42.70;;;;;;;11.64;100.00;100840.42;1940943;74;32994;-72
2021/10/04 02:37:23;;;;;;;46.63;43.00;;;;;;;11.85;100.00;100836.38;1941343;74;33086;-77
2021/10/04 02:42:48;;;;;;;47.43;43.63;;;;;;;11.98;100.00;100828.70;1940951;74;33493;-79
2021/10/04 02:48:13;;;;;;;48.20;44.30;;;;;;;11.86;100.00;100819.92;1941129;74;33096;-76
2021/10/04 02:53:39;;;;;;;46.97;43.37;;;;;;;12.10;100.00;100822.75;1941007;74;33046;-79
2021/10/04 02:59:03;;;;;;;49.13;45.40;;;;;;;11.98;100.00;100820.34;1941103;74;33088;-79
2021/10/04 03:04:27;;;;;;;47.10;43.13;;;;;;;11.96;100.00;100833.75;1941044;74;33605;-72
2021/10/04 03:09:52;;;;;;;46.63;43.23;;;;;;;11.78;100.00;100853.97;1941323;74;32975;-76
2021/10/04 03:15:17;;;;;;;48.83;44.67;;;;;;;11.83;100.00;100894.28;1941123;74;33515;-78
2021/10/04 03:20:42;;;;;;;44.83;41.07;;;;;;;11.97;100.00;100890.25;1941407;74;33048;-76
2021/10/04 03:26:06;;;;;;;47.47;43.67;;;;;;;12.16;100.00;100868.88;1940829;74;32961;-78
2021/10/04 03:31:30;;;;;;;46.73;42.90;;;;;;;12.13;100.00;100866.14;1941046;74;32988;-78
2021/10/04 03:36:56;;;;;;;44.57;41.13;;;;;;;12.15;100.00;100869.44;1940831;74;33115;-71
2021/10/04 03:42:20;;;;;;;44.03;40.63;;;;;;;12.12;100.00;100904.01;1941087;74;32985;-71
2021/10/04 03:47:46;;;;;;;46.80;43.27;;;;;;;12.10;100.00;100930.77;1941371;74;32983;-77
2021/10/04 03:53:11;;;;;;;48.27;44.43;;;;;;;11.97;100.00;100932.02;1941141;74;32978;-77
2021/10/04 03:58:42;;;;;;;47.83;44.40;;;;;;;11.85;100.00;100918.48;1941298;74;33514;-78
2021/10/04 04:04:07;;;;;;;45.07;41.57;;;;;;;11.80;100.00;100916.58;1941161;74;33066;-77
2021/10/04 04:09:31;;;;;;;46.53;42.93;;;;;;;11.72;100.00;100908.03;1941003;74;33054;-72
2021/10/04 04:14:55;;;;;;;45.00;41.90;;;;;;;11.74;100.00;100898.81;1940795;74;33075;-72
2021/10/04 04:20:20;;;;;;;43.17;40.17;;;;;;;11.71;100.00;100909.11;1940895;74;33079;-80
2021/10/04 04:25:44;;;;;;;45.60;42.13;;;;;;;11.55;100.00;100888.91;1941160;74;32987;-77
2021/10/04 04:31:09;;;;;;;45.67;42.37;;;;;;;11.62;100.00;100891.37;1940795;74;33000;-78
2021/10/04 04:36:33;;;;;;;43.93;40.50;;;;;;;11.58;100.00;100889.74;1940932;74;33048;-78
2021/10/04 04:41:57;;;;;;;43.13;40.00;;;;;;;11.66;100.00;100898.85;1941197;74;32975;-77
2021/10/04 04:47:22;;;;;;;43.50;40.30;;;;;;;11.77;100.00;100896.27;1940889;74;33001;-78
2021/10/04 04:52:47;;;;;;;44.53;41.13;;;;;;;11.75;100.00;100895.75;1940918;74;33041;-78
2021/10/04 04:58:11;;;;;;;43.70;40.60;;;;;;;11.72;100.00;100891.33;1941376;74;33084;-77
2021/10/04 05:03:35;;;;;;;44.23;40.83;;;;;;;11.74;100.00;100890.46;1941111;74;33621;-78
2021/10/04 05:09:00;;;;;;;44.70;41.20;;;;;;;11.84;100.00;100900.12;1940914;74;33091;-72
2021/10/04 05:14:27;;;;;;;43.20;40.20;;;;;;;11.91;100.00;100896.42;1941165;74;32977;-77
2021/10/04 05:19:57;;;;;;;45.23;41.60;;;;;;;11.90;100.00;100891.14;1941037;74;32991;-72
2021/10/04 05:25:23;;;;;;;44.90;41.70;;;;;;;11.89;100.00;100884.77;1941051;74;32982;-72
2021/10/04 05:30:47;;;;;;;44.07;40.57;;;;;;;11.85;100.00;100877.55;1941141;74;32987;-77
2021/10/04 05:36:11;;;;;;;47.17;43.50;;;;;;;11.89;100.00;100860.28;1941213;74;33149;-78
2021/10/04 05:41:36;;;;;;;43.67;40.60;;;;;;;11.83;100.00;100871.45;1940872;74;32990;-72
2021/10/04 05:47:01;;;;;;;47.27;43.77;;;;;;;11.78;100.00;100871.50;1941341;74;32994;-77
2021/10/04 05:52:26;;;;;;;45.00;41.67;;;;;;;11.67;100.00;100896.34;1940888;74;32982;-78
2021/10/04 05:57:50;;;;;;;47.97;44.07;;;;;;;11.62;100.00;100901.12;1940938;74;33018;-72
2021/10/04 06:03:14;;;;;;;47.87;44.47;;;;;;;11.57;100.00;100901.98;1941177;74;32976;-75
2021/10/04 06:08:39;;;;;;;50.83;47.43;;;;;;;11.55;100.00;100900.04;1941218;74;33033;-76
2021/10/04 06:14:03;;;;;;;47.87;44.33;;;;;;;11.55;100.00;100908.38;1941147;74;32983;-75
2021/10/04 06:19:27;;;;;;;49.40;45.80;;;;;;;11.51;100.00;100914.84;1940934;74;33070;-78
2021/10/04 06:24:53;;;;;;;48.43;44.77;;;;;;;11.55;100.00;100918.13;1940920;74;32968;-81
2021/10/04 06:30:18;;;;;;;48.67;45.27;;;;;;;11.47;100.00;100916.55;1941143;74;33052;-74
2021/10/04 06:35:43;;;;;;;48.23;44.80;;;;;;;11.44;100.00;100912.38;1941062;74;33070;-72
2021/10/04 06:41:07;;;;;;;46.70;43.37;;;;;;;11.40;100.00;100916.30;1941134;74;33121;-73
2021/10/04 06:46:32;;;;;;;46.83;43.60;;;;;;;11.36;100.00;100920.78;1941148;74;33061;-75
2021/10/04 06:51:56;;;;;;;47.03;43.73;;;;;;;11.31;100.00;100924.98;1941337;74;33137;-75
2021/10/04 06:57:21;;;;;;;50.67;47.13;;;;;;;11.35;100.00;100926.06;1940879;74;33011;-77
2021/10/04 07:03:05;;;;;;;47.27;43.87;;;;;;;11.44;100.00;100924.89;2009909;71;32827;-73
2021/10/04 07:08:29;;;;;;;49.67;46.07;;;;;;;11.37;100.00;100931.35;1941089;74;33571;-75
2021/10/04 07:13:54;;;;;;;50.67;46.73;;;;;;;11.36;100.00;100928.30;1941206;74;33445;-79
2021/10/04 07:19:20;;;;;;;49.57;46.10;;;;;;;11.48;100.00;100930.14;1941042;74;33135;-81
2021/10/04 07:24:45;;;;;;;49.00;45.87;;;;;;;11.58;100.00;100924.52;1940924;74;33002;-81
2021/10/04 07:30:17;;;;;;;49.70;46.50;;;;;;;11.67;100.00;100926.95;1940858;74;33050;-80
2021/10/04 07:35:41;;;;;;;52.00;48.53;;;;;;;11.75;100.00;100935.27;1941147;74;32977;-76
2021/10/04 07:41:08;;;;;;;49.77;46.47;;;;;;;11.93;100.00;100928.16;1941055;74;33087;-76
2021/10/04 07:46:35;;;;;;;49.03;45.43;;;;;;;12.14;100.00;100942.98;1941085;74;32975;-75
2021/10/04 07:52:00;;;;;;;53.53;50.03;;;;;;;12.47;100.00;100950.98;1940975;74;32978;-85
2021/10/04 07:57:25;;;;;;;51.13;47.67;;;;;;;12.58;100.00;100946.95;1941034;74;32993;-75
2021/10/04 08:02:50;;;;;;;52.60;49.00;;;;;;;12.67;100.00;100955.48;1940739;74;33021;-82
2021/10/04 08:08:14;;;;;;;53.73;50.23;;;;;;;12.81;100.00;100950.03;1940977;74;32969;-74
2021/10/04 08:13:39;;;;;;;43.93;40.63;;;;;;;13.06;100.00;100958.06;1940716;74;33064;-80
2021/10/04 08:19:03;;;;;;;45.77;42.17;;;;;;;13.36;100.00;100957.67;1940590;74;32987;-81
2021/10/04 08:24:27;;;;;;;50.47;47.10;;;;;;;13.40;100.00;100955.94;1940745;74;32985;-81
2021/10/04 08:29:58;;;;;;;51.37;47.67;;;;;;;13.73;100.00;100954.63;1940588;74;32987;-80
2021/10/04 08:35:23;;;;;;;52.43;48.83;;;;;;;13.81;100.00;100954.76;1940910;74;33015;-75
2021/10/04 08:40:48;;;;;;;48.77;44.77;;;;;;;13.90;100.00;100967.46;1941050;74;33466;-75
2021/10/04 08:46:13;;;;;;;47.70;44.00;;;;;;;13.96;100.00;100967.06;1941100;74;32978;-75
2021/10/04 08:51:44;;;;;;;49.00;45.50;;;;;;;14.16;100.00;100967.30;1940945;74;33063;-75
2021/10/04 08:57:29;;;;;;;48.63;45.03;;;;;;;14.29;100.00;100962.28;2009587;71;32830;-81
2021/10/04 09:03:01;;;;;;;52.13;48.40;;;;;;;14.57;100.00;100976.61;1940705;74;33072;-74
2021/10/04 09:08:26;;;;;;;51.63;48.13;;;;;;;15.00;100.00;100967.34;1940930;74;32985;-75
2021/10/04 09:13:51;;;;;;;52.87;48.93;;;;;;;14.68;100.00;100961.02;1940904;74;32968;-75
2021/10/04 09:19:38;;;;;;;49.37;45.87;;;;;;;14.79;100.00;100972.27;2022417;70;32817;-75
2021/10/04 09:25:10;;;;;;;52.27;48.53;;;;;;;14.84;100.00;100972.17;1940663;74;32958;-80
2021/10/04 09:30:35;;;;;;;61.03;57.03;;;;;;;14.98;100.00;100966.81;1940562;74;32967;-73
2021/10/04 09:36:00;;;;;;;47.43;44.23;;;;;;;15.19;100.00;100960.81;1940713;74;33512;-80
2021/10/04 09:41:24;;;;;;;45.87;42.73;;;;;;;15.08;100.00;100972.77;1940695;74;33497;-80
2021/10/04 09:47:09;;;;;;;49.53;46.37;;;;;;;15.34;100.00;100964.08;1941125;74;33465;-75
2021/10/04 09:52:47;;;;;;;44.50;41.53;;;;;;;15.46;100.00;100958.77;1941102;74;33486;-75
2021/10/04 09:58:19;;;;;;;43.53;40.33;;;;;;;15.47;100.00;100966.59;1940670;74;33117;-81
2021/10/04 10:03:45;;;;;;;40.93;38.33;;;;;;;15.48;100.00;100969.09;1940914;74;33538;-77
2021/10/04 10:09:10;;;;;;;39.70;37.00;;;;;;;15.72;100.00;100955.39;1940670;74;33076;-78
2021/10/04 10:14:42;;;;;;;37.40;34.97;;;;;;;15.77;100.00;100946.30;1940725;74;33023;-72
2021/10/04 10:20:12;;;;;;;35.33;33.23;;;;;;;15.63;100.00;100946.08;1940666;74;33193;-73
2021/10/04 10:25:46;;;;;;;37.47;35.10;;;;;;;15.86;100.00;100938.80;1941079;74;33558;-75
2021/10/04 10:31:34;;;;;;;36.83;34.90;;;;;;;16.06;100.00;100938.00;1940930;74;32963;-75
2021/10/04 10:37:07;;;;;;;37.90;35.77;;;;;;;16.20;100.00;100930.35;1941190;74;33488;-75
2021/10/04 10:42:35;;;;;;;35.93;33.90;;;;;;;16.27;100.00;100930.14;1940923;74;33466;-75
2021/10/04 10:48:45;;;;;;;35.10;33.00;;;;;;;16.20;100.00;100928.37;1941212;74;32946;-75
2021/10/04 10:54:40;;;;;;;32.50;30.90;;;;;;;16.33;100.00;100926.63;1940756;74;31758;-73
2021/10/04 11:00:18;;;;;;;34.90;33.00;;;;;;;16.44;100.00;100929.97;1940938;74;32964;-75
2021/10/04 11:06:09;;;;;;;34.03;32.00;;;;;;;16.11;100.00;100930.88;1940896;74;31484;-82
2021/10/04 11:11:58;;;;;;;36.97;34.90;;;;;;;16.52;100.00;100930.58;1940937;74;33147;-75
2021/10/04 11:17:23;;;;;;;33.20;31.50;;;;;;;16.68;100.00;100928.48;1940827;74;33500;-72
2021/10/04 11:22:47;;;;;;;27.33;25.83;;;;;;;16.76;100.00;100924.05;1940932;74;31148;-75
2021/10/04 11:28:13;;;;;;;28.70;27.10;;;;;;;16.78;100.00;100918.92;1941092;74;31477;-75
2021/10/04 11:33:54;;;;;;;24.93;23.63;;;;;;;16.75;100.00;100921.81;1940894;74;33455;-75
2021/10/04 11:39:23;;;;;;;26.77;25.27;;;;;;;16.76;100.00;100912.25;1940938;74;31046;-82
2021/10/04 11:44:48;;;;;;;25.40;24.10;;;;;;;16.88;100.00;100910.22;1940770;74;33019;-82
2021/10/04 11:50:15;;;;;;;26.50;25.00;;;;;;;17.04;100.00;100905.80;1941139;74;31107;-75
2021/10/04 11:55:41;;;;;;;25.80;23.90;;;;;;;16.57;100.00;100915.02;1940950;74;31098;-74
2021/10/04 12:01:09;;;;;;;26.63;25.03;;;;;;;16.34;100.00;100894.05;1940938;74;32989;-75
2021/10/04 12:06:36;;;;;;;30.20;28.30;;;;;;;16.61;100.00;100909.05;1940980;74;32953;-75
2021/10/04 12:12:01;;;;;;;32.33;30.50;;;;;;;16.60;100.00;100906.81;1940935;74;33511;-75
2021/10/04 12:17:27;;;;;;;33.20;31.33;;;;;;;16.60;100.00;100920.03;1940932;74;33009;-75
2021/10/04 12:22:52;;;;;;;32.83;30.93;;;;;;;16.93;100.00;100921.30;1941138;74;31472;-75
2021/10/04 12:28:25;;;;;;;30.17;28.57;;;;;;;16.72;100.00;100924.45;1940714;74;33011;-73
2021/10/04 12:33:51;;;;;;;32.07;30.27;;;;;;;16.70;100.00;100923.94;1940756;74;33651;-78
2021/10/04 12:39:16;;;;;;;34.67;32.87;;;;;;;16.69;100.00;100921.70;1940739;74;33092;-80
2021/10/04 12:44:42;;;;;;;34.50;32.20;;;;;;;16.66;100.00;100922.36;1941304;74;33542;-75
2021/10/04 12:50:09;;;;;;;28.10;26.50;;;;;;;16.98;100.00;100895.89;1941064;74;32958;-75
2021/10/04 12:55:44;;;;;;;29.63;27.40;;;;;;;17.26;100.00;100899.22;1941118;74;31042;-75
2021/10/04 13:01:15;;;;;;;42.17;40.00;;;;;;;17.41;100.00;100876.86;1941023;74;31033;-72
2021/10/04 13:06:47;;;;;;;28.20;26.20;;;;;;;17.62;100.00;100875.90;1940956;74;31103;-74
2021/10/04 13:12:15;;;;;;;28.00;26.40;;;;;;;17.39;100.00;100873.55;1940906;74;33026;-72
2021/10/04 13:17:40;;;;;;;31.93;29.93;;;;;;;17.25;100.00;100881.55;1941196;74;33481;-78
2021/10/04 13:23:07;;;;;;;29.13;26.97;;;;;;;17.14;100.00;100886.42;1941357;74;31023;-75
2021/10/04 13:28:31;;;;;;;26.70;25.10;;;;;;;17.34;100.00;100872.30;1941349;74;31529;-75
2021/10/04 13:33:56;;;;;;;28.57;26.97;;;;;;;17.16;100.00;100872.30;1941308;74;31604;-75
2021/10/04 13:39:21;;;;;;;30.17;28.47;;;;;;;17.19;100.00;100875.87;1941217;74;30993;-75
2021/10/04 13:44:50;;;;;;;40.80;38.30;;;;;;;16.86;100.00;100880.25;1940892;74;32978;-76
2021/10/04 13:50:14;;;;;;;42.60;39.97;;;;;;;16.55;100.00;100876.11;1940937;74;32971;-74
2021/10/04 13:55:38;;;;;;;43.90;41.10;;;;;;;16.69;100.00;100873.19;1941062;74;33558;-72
2021/10/04 14:01:07;;;;;;;44.50;41.70;;;;;;;16.78;100.00;100865.62;1941154;74;31074;-76
2021/10/04 14:06:32;;;;;;;37.43;35.27;;;;;;;16.92;100.00;100873.91;1941076;74;31046;-72
2021/10/04 14:11:56;;;;;;;39.97;37.37;;;;;;;16.80;100.00;100870.34;1941080;74;33088;-74
2021/10/04 14:17:22;;;;;;;38.10;35.40;;;;;;;16.80;100.00;100865.56;1941156;74;31143;-75
2021/10/04 14:22:48;;;;;;;35.53;33.20;;;;;;;16.84;100.00;100864.33;1941113;74;31076;-75
2021/10/04 14:28:13;;;;;;;35.73;33.63;;;;;;;16.76;100.00;100865.14;1941147;74;33441;-76
2021/10/04 14:33:38;;;;;;;32.40;30.40;;;;;;;16.66;100.00;100862.62;1940964;74;31010;-72
2021/10/04 14:39:03;;;;;;;31.33;29.43;;;;;;;16.72;100.00;100864.14;1940927;74;33037;-74
2021/10/04 14:44:30;;;;;;;31.87;29.77;;;;;;;16.69;100.00;100887.21;1941232;74;33508;-75
2021/10/04 14:49:56;;;;;;;33.53;31.53;;;;;;;16.50;100.00;100876.25;1941148;74;33011;-74
2021/10/04 14:55:23;;;;;;;42.80;40.10;;;;;;;16.34;100.00;100891.25;1941110;74;31176;-75
2021/10/04 15:00:49;;;;;;;51.80;48.43;;;;;;;15.80;100.00;100915.41;1977574;72;33021;-77
2021/10/04 15:06:14;;;;;;;53.10;49.40;;;;;;;15.37;100.00;100923.42;1940972;74;33056;-73
2021/10/04 15:11:45;;;;;;;54.13;50.10;;;;;;;14.97;100.00;100930.78;1940926;74;33039;-71
2021/10/04 15:17:18;;;;;;;52.43;48.33;;;;;;;14.97;100.00;100937.78;1941131;74;33464;-72
2021/10/04 15:22:43;;;;;;;54.50;50.47;;;;;;;14.77;100.00;100947.97;1941110;74;33528;-72
2021/10/04 15:28:27;;;;;;;52.50;48.43;;;;;;;14.51;100.00;100947.08;2009699;71;32822;-72
2021/10/04 15:33:51;;;;;;;50.57;46.60;;;;;;;14.46;100.00;100937.39;1940963;74;32981;-72
2021/10/04 15:39:16;;;;;;;52.17;48.13;;;;;;;14.51;100.00;100956.03;1941103;74;33521;-75
2021/10/04 15:44:42;;;;;;;49.97;46.17;;;;;;;14.36;100.00;100954.38;1940924;74;32978;-70
2021/10/04 15:50:09;;;;;;;54.63;50.90;;;;;;;14.41;100.00;100953.45;1941092;74;33082;-73
2021/10/04 15:55:34;;;;;;;55.63;51.53;;;;;;;14.39;100.00;100950.13;1940960;74;33158;-72
2021/10/04 16:00:59;;;;;;;56.43;52.37;;;;;;;14.38;100.00;100960.47;1941140;74;32980;-72
2021/10/04 16:06:24;;;;;;;58.47;54.40;;;;;;;14.36;100.00;100963.32;1941141;74;33553;-70
2021/10/04 16:12:54;;;;;;;54.30;50.23;;;;;;;14.42;100.00;100958.71;1940926;74;33034;-72
2021/10/04 16:18:14;;;;;;;57.30;53.13;;;;;;;14.42;100.00;100963.47;1940916;74;33080;-72
2021/10/04 16:23:39;;;;;;;55.30;51.10;;;;;;;14.31;100.00;100959.19;1941256;74;33062;-71
2021/10/04 16:29:02;;;;;;;61.77;57.47;;;;;;;14.25;100.00;100956.24;1941165;74;33447;-76
2021/10/04 16:34:47;;;;;;;54.30;50.20;;;;;;;14.32;100.00;100958.06;2010231;71;32806;-76
2021/10/04 16:40:13;;;;;;;57.23;53.33;;;;;;;14.39;100.00;100948.72;1941543;74;32964;-73
2021/10/04 16:45:37;;;;;;;60.93;56.53;;;;;;;14.38;100.00;100940.91;1941382;74;32968;-76
2021/10/04 16:51:03;;;;;;;59.23;55.13;;;;;;;14.27;100.00;100943.61;1940936;74;32955;-72
2021/10/04 16:56:27;;;;;;;61.20;56.83;;;;;;;14.25;100.00;100932.49;1941108;74;33466;-71
2021/10/04 17:01:58;;;;;;;61.30;57.10;;;;;;;14.27;100.00;100933.00;1941045;74;33042;-73
2021/10/04 17:07:22;;;;;;;50.90;46.90;;;;;;;14.32;100.00;100927.32;1940893;74;33043;-68
2021/10/04 17:12:46;;;;;;;51.97;47.87;;;;;;;14.29;100.00;100920.36;1941011;74;32998;-77
2021/10/04 17:18:11;;;;;;;50.77;46.77;;;;;;;14.27;100.00;100905.06;1941031;74;33035;-76
2021/10/04 17:23:35;;;;;;;56.27;52.07;;;;;;;14.27;100.00;100907.85;1907570;75;33142;-70
2021/10/04 17:29:01;;;;;;;50.33;46.60;;;;;;;14.37;100.00;100911.89;1941188;74;33521;-76
2021/10/04 17:34:29;;;;;;;56.30;52.00;;;;;;;14.35;100.00;100914.12;1941198;74;33470;-68
2021/10/04 17:39:56;;;;;;;55.53;51.03;;;;;;;14.23;100.00;100913.80;1941202;74;33528;-77
2021/10/04 17:45:21;;;;;;;57.67;53.07;;;;;;;14.39;100.00;100910.44;1941139;74;33468;-68
2021/10/04 17:50:49;;;;;;;54.40;50.33;;;;;;;14.33;100.00;100902.44;1940975;74;33021;-78
2021/10/04 17:56:14;;;;;;;55.67;51.17;;;;;;;14.34;100.00;100903.51;1940988;74;32974;-71
2021/10/04 18:01:39;;;;;;;51.20;46.37;;;;;;;14.12;100.00;100901.41;1941199;74;32979;-75
2021/10/04 18:07:04;;;;;;;54.87;50.57;;;;;;;13.98;100.00;100899.73;1941086;74;32981;-78
2021/10/04 18:12:28;;;;;;;53.50;49.30;;;;;;;13.85;100.00;100891.59;1941199;74;33038;-69
2021/10/04 18:17:53;;;;;;;48.67;44.60;;;;;;;13.80;100.00;100900.61;1941058;74;32984;-70
2021/10/04 18:23:18;;;;;;;46.87;43.03;;;;;;;13.88;100.00;100904.09;1941051;74;33087;-70
2021/10/04 18:28:41;;;;;;;48.63;44.43;;;;;;;13.81;100.00;100889.15;1940932;74;32979;-69
2021/10/04 18:34:24;;;;;;;47.00;42.80;;;;;;;13.91;100.00;100899.28;2000764;71;32871;-67
2021/10/04 18:39:56;;;;;;;50.03;45.73;;;;;;;13.74;100.00;100887.86;1941153;74;33043;-64
2021/10/04 18:45:41;;;;;;;46.87;42.97;;;;;;;13.80;100.00;100876.31;2008170;71;32931;-74
2021/10/04 18:51:06;;;;;;;49.33;45.33;;;;;;;13.75;100.00;100843.46;1941082;74;33535;-74
2021/10/04 18:56:32;;;;;;;50.53;46.07;;;;;;;13.80;100.00;100851.75;1941161;74;32987;-65
2021/10/04 19:02:16;;;;;;;50.73;46.43;;;;;;;13.80;100.00;100844.20;2009959;71;33305;-74
2021/10/04 19:07:40;;;;;;;52.07;47.50;;;;;;;13.73;100.00;100842.95;1941052;74;33582;-65
2021/10/04 19:13:07;;;;;;;50.73;46.40;;;;;;;13.70;100.00;100844.38;1941126;74;33585;-74
2021/10/04 19:18:34;;;;;;;51.93;47.37;;;;;;;13.60;100.00;100830.63;1941054;74;33506;-73
2021/10/04 19:23:58;;;;;;;54.40;49.73;;;;;;;13.64;100.00;100837.25;1940997;74;32989;-67
2021/10/04 19:29:24;;;;;;;56.13;50.93;;;;;;;13.57;100.00;100828.42;1941117;74;33557;-75
2021/10/04 19:34:49;;;;;;;59.10;54.03;;;;;;;13.64;100.00;100822.73;1940959;74;32958;-66
2021/10/04 19:40:15;;;;;;;54.00;49.03;;;;;;;13.66;100.00;100820.44;1940907;74;33087;-67
2021/10/04 19:45:41;;;;;;;53.17;48.50;;;;;;;13.68;100.00;100807.59;1940933;74;33053;-73
2021/10/04 19:51:07;;;;;;;57.77;52.73;;;;;;;13.73;100.00;100802.48;1940974;74;33053;-73
2021/10/04 19:56:33;;;;;;;59.23;53.63;;;;;;;13.62;100.00;100794.84;1940969;74;33166;-65
2021/10/04 20:02:01;;;;;;;53.03;48.33;;;;;;;13.65;100.00;100785.84;1940947;74;32976;-72
2021/10/04 20:07:26;;;;;;;51.73;47.30;;;;;;;13.69;100.00;100775.75;1941272;74;32967;-68
2021/10/04 20:13:12;;;;;;;49.43;45.17;;;;;;;13.57;100.00;100744.13;1995252;71;32984;-73
2021/10/04 20:18:38;;;;;;;51.13;46.80;;;;;;;13.53;100.00;100733.89;1941043;74;33052;-73
2021/10/04 20:24:08;;;;;;;51.87;47.77;;;;;;;13.58;100.00;100729.05;1940978;74;33052;-67
2021/10/04 20:29:30;;;;;;;51.63;47.37;;;;;;;13.57;100.00;100726.55;1941052;74;33096;-75
2021/10/04 20:34:55;;;;;;;51.53;47.10;;;;;;;13.40;100.00;100719.34;1941024;74;33093;-65
2021/10/04 20:40:20;;;;;;;48.80;44.90;;;;;;;13.30;100.00;100710.62;1940960;74;33043;-72
2021/10/04 20:45:45;;;;;;;47.87;43.57;;;;;;;13.30;100.00;100695.84;1940994;74;33114;-67
2021/10/04 20:51:10;;;;;;;50.63;46.17;;;;;;;13.38;100.00;100701.53;1941157;74;33474;-68
2021/10/04 20:56:35;;;;;;;47.27;42.73;;;;;;;13.43;100.00;100687.50;1941015;74;33554;-69
2021/10/04 20:59:25;;;;;;;46.73;43.00;;;;;;;13.47;100.00;100688.53;1904905;75;26191;-79
2021/10/04 21:04:55;;;;;;;47.13;43.23;;;;;;;13.59;100.00;100674.89;1940872;74;32988;-70
2021/10/04 21:10:18;;;;;;;48.83;44.77;;;;;;;13.48;100.00;100664.22;1941271;74;32994;-66
2021/10/04 21:15:43;;;;;;;48.83;44.83;;;;;;;13.59;100.00;100655.36;1941172;74;33452;-67
2021/10/04 21:21:00;;;;;;;46.30;41.97;;;;;;;13.58;100.00;100632.77;1977715;72;32764;-67
2021/10/04 21:26:26;;;;;;;49.47;44.77;;;;;;;13.68;100.00;100595.45;1940927;74;32979;-75
2021/10/04 21:31:50;;;;;;;46.07;42.03;;;;;;;13.67;100.00;100583.45;1940989;74;33058;-69
2021/10/04 21:37:16;;;;;;;49.23;45.00;;;;;;;13.72;100.00;100570.52;1941172;74;33083;-76
2021/10/04 21:42:42;;;;;;;47.67;43.83;;;;;;;13.71;100.00;100551.55;1941002;74;33052;-76
2021/10/04 21:48:09;;;;;;;50.10;45.87;;;;;;;13.67;100.00;100552.75;1941021;74;32984;-77
2021/10/04 21:53:34;;;;;;;49.57;45.43;;;;;;;13.65;100.00;100550.00;1941145;74;33438;-77
2021/10/04 21:59:00;;;;;;;50.20;45.97;;;;;;;13.72;100.00;100517.48;1940956;74;32986;-77
2021/10/04 22:04:32;;;;;;;50.73;46.53;;;;;;;13.73;100.00;100519.98;1941139;74;33455;-68
2021/10/04 22:15:35;;;;;;;49.40;45.60;;;;;;;13.81;100.00;100491.31;1940996;74;32983;-77
2021/10/04 22:21:03;;;;;;;48.90;45.10;;;;;;;13.76;100.00;100470.49;1941133;74;33627;-68
2021/10/04 22:26:27;;;;;;;49.47;45.43;;;;;;;13.85;100.00;100472.78;1940926;74;33065;-78
2021/10/04 22:31:52;;;;;;;47.10;43.23;;;;;;;13.98;100.00;100454.32;1940954;74;32958;-67
2021/10/04 22:37:17;;;;;;;48.23;44.20;;;;;;;14.11;100.00;100448.67;1941151;74;33530;-68
2021/10/04 22:42:42;;;;;;;47.67;43.77;;;;;;;14.14;100.00;100446.63;1940901;74;33041;-77
2021/10/04 22:48:07;;;;;;;47.83;43.97;;;;;;;14.25;100.00;100447.17;1940993;74;32976;-67
2021/10/04 22:53:34;;;;;;;48.83;45.07;;;;;;;14.25;100.00;100431.81;1940971;74;33072;-76
2021/10/04 22:59:02;;;;;;;49.10;45.10;;;;;;;14.30;100.00;100419.11;1940936;74;32979;-68
2021/10/04 23:04:28;;;;;;;49.47;45.57;;;;;;;14.51;100.00;100388.66;1940960;74;33043;-77
2021/10/04 23:09:53;;;;;;;48.63;44.93;;;;;;;14.51;100.00;100370.49;1941021;74;33081;-77
2021/10/04 23:15:20;;;;;;;49.03;45.10;;;;;;;14.61;100.00;100348.42;1941145;74;33538;-68
2021/10/04 23:20:47;;;;;;;48.27;44.47;;;;;;;14.67;100.00;100331.19;1941204;74;33552;-66
2021/10/04 23:26:13;;;;;;;47.87;43.87;;;;;;;14.74;100.00;100323.14;1941377;74;33005;-76
2021/10/04 23:31:38;;;;;;;48.57;44.47;;;;;;;14.83;100.00;100298.81;1941120;74;33546;-77
2021/10/04 23:37:03;;;;;;;47.00;43.20;;;;;;;14.87;100.00;100283.60;1940890;74;33023;-68
2021/10/04 23:42:27;;;;;;;47.53;43.70;;;;;;;14.89;100.00;100277.91;1941109;74;33503;-68
2021/10/04 23:47:52;;;;;;;47.50;43.70;;;;;;;14.91;100.00;100277.03;1941089;74;32970;-77
2021/10/04 23:53:16;;;;;;;46.53;42.53;;;;;;;14.95;100.00;100257.04;1940897;74;32975;-67
2021/10/04 23:58:41;;;;;;;48.83;45.17;;;;;;;15.00;100.00;100247.66;1940913;74;33030;-68
